Time;durP1;ratioP1;P1;durP2;ratioP2;P2;SDS_P1;SDS_P2;PMS_P1;PMS_P2;Temp;Humidity;BMP_temperature;BMP_pressure;BME280_temperature;BME280_humidity;BME280_pressure;Samples;Min_cycle;Max_cycle;Signal;HPM_P1;HPM_P2
2021/11/21 00:00:07;;;;;;;;;;;;;;;;;;2217863;66;1221;-71
2021/11/21 00:02:43;;;;;;;;;;;;;;;;;;2215893;58;2152;-71
2021/11/21 00:05:17;;;;;;;;;;;;;;;;;;2218254;58;1676;-72
2021/11/21 00:07:50;;;;;;;;;;;;;;;;;;2217096;58;2252;-71
2021/11/21 00:10:23;;;;;;;;;;;;;;;;;;2218496;59;1212;-71
2021/11/21 00:12:57;;;;;;;;;;;;;;;;;;2218327;59;1712;-71
2021/11/21 00:15:30;;;;;;;;;;;;;;;;;;2216525;59;1924;-71
2021/11/21 00:18:07;;;;;;;;;;;;;;;;;;2216850;59;2205;-71
2021/11/21 00:20:42;;;;;;;;;;;;;;;;;;2218192;66;1265;-71
2021/11/21 00:23:15;;;;;;;;;;;;;;;;;;2218254;59;1976;-71
2021/11/21 00:25:49;;;;;;;;;;;;;;;;;;2216959;58;2348;-72
2021/11/21 00:28:22;;;;;;;;;;;;;;;;;;2216336;58;1827;-71
2021/11/21 00:30:55;;;;;;;;;;;;;;;;;;2217253;59;1855;-71
2021/11/21 00:33:32;;;;;;;;;;;;;;;;;;2217531;66;1070;-71
2021/11/21 00:36:06;;;;;;;;;;;;;;;;;;2216901;59;1777;-71
2021/11/21 00:38:40;;;;;;;;;;;;;;;;;;2215740;59;2031;-71
2021/11/21 00:41:13;;;;;;;;;;;;;;;;;;2217208;59;1839;-71
2021/11/21 00:43:47;;;;;;;;;;;;;;;;;;2217245;66;1904;-71
2021/11/21 00:46:20;;;;;;;;;;;;;;;;;;2217194;58;2293;-71
2021/11/21 00:48:56;;;;;;;;;;;;;;;;;;2212079;59;2641;-71
2021/11/21 00:51:30;;;;;;;;;;;;;;;;;;2216088;58;2261;-71
2021/11/21 00:54:10;;;;;;;;;;;;;;;;;;2217611;66;1147;-71
2021/11/21 00:56:44;;;;;;;;;;;;;;;;;;2218311;59;1904;-71
2021/11/21 00:59:19;;;;;;;;;;;;;;;;;;2217158;58;2125;-71
2021/11/21 01:01:53;;;;;;;;;;;;;;;;;;2217900;59;1955;-71
2021/11/21 01:04:29;;;;;;;;;;;;;;;;;;2216069;66;1927;-71
2021/11/21 01:07:03;;;;;;;;;;;;;;;;;;2217200;58;1936;-71
2021/11/21 01:09:36;;;;;;;;;;;;;;;;;;2217593;66;1099;-71
2021/11/21 01:12:10;;;;;;;;;;;;;;;;;;2217382;58;1847;-71
2021/11/21 01:14:43;;;;;;;;;;;;;;;;;;2218243;66;1095;-71
2021/11/21 01:17:17;;;;;;;;;;;;;;;;;;2217070;58;1851;-71
2021/11/21 01:19:59;;;;;;;;;;;;;;;;;;2217204;66;1224;-71
2021/11/21 01:22:33;;;;;;;;;;;;;;;;;;2217795;59;1920;-71
2021/11/21 01:25:07;;;;;;;;;;;;;;;;;;2217785;66;1203;-71
2021/11/21 01:27:40;;;;;;;;;;;;;;;;;;2216388;59;1916;-71
2021/11/21 01:30:15;;;;;;;;;;;;;;;;;;2217072;66;1214;-71
2021/11/21 01:32:49;;;;;;;;;;;;;;;;;;2219810;59;1998;-71
2021/11/21 01:35:25;;;;;;;;;;;;;;;;;;2217550;66;1206;-71
2021/11/21 01:37:59;;;;;;;;;;;;;;;;;;2217439;59;2214;-71
2021/11/21 01:40:33;;;;;;;;;;;;;;;;;;2217457;66;1510;-71
2021/11/21 01:43:06;;;;;;;;;;;;;;;;;;2219846;59;2131;-72
2021/11/21 01:45:40;;;;;;;;;;;;;;;;;;2217341;59;1336;-71
2021/11/21 01:48:13;;;;;;;;;;;;;;;;;;2217023;59;2482;-71
2021/11/21 01:50:50;;;;;;;;;;;;;;;;;;2217192;59;2199;-72
2021/11/21 01:53:23;;;;;;;;;;;;;;;;;;2218763;66;1217;-71
2021/11/21 01:55:56;;;;;;;;;;;;;;;;;;2215614;59;1930;-71
2021/11/21 01:58:30;;;;;;;;;;;;;;;;;;2217425;59;1932;-71
2021/11/21 02:01:04;;;;;;;;;;;;;;;;;;2216697;58;2229;-71
2021/11/21 02:03:37;;;;;;;;;;;;;;;;;;2217015;59;1935;-71
2021/11/21 02:06:13;;;;;;;;;;;;;;;;;;2217778;59;1955;-71
2021/11/21 02:08:46;;;;;;;;;;;;;;;;;;2218306;59;1850;-71
2021/11/21 02:11:20;;;;;;;;;;;;;;;;;;2216626;59;1866;-71
2021/11/21 02:13:54;;;;;;;;;;;;;;;;;;2218291;66;1252;-71
2021/11/21 02:16:29;;;;;;;;;;;;;;;;;;2215327;59;1878;-71
2021/11/21 02:19:03;;;;;;;;;;;;;;;;;;2217006;58;2283;-71
2021/11/21 02:21:39;;;;;;;;;;;;;;;;;;2217683;59;1736;-71
2021/11/21 02:24:13;;;;;;;;;;;;;;;;;;2218985;59;1935;-71
2021/11/21 02:26:46;;;;;;;;;;;;;;;;;;2217131;59;1902;-71
2021/11/21 02:29:20;;;;;;;;;;;;;;;;;;2215079;53;2258;-70
2021/11/21 02:31:53;;;;;;;;;;;;;;;;;;2206109;59;1813;-70
2021/11/21 02:34:26;;;;;;;;;;;;;;;;;;2202457;59;1123;-70
2021/11/21 02:37:02;;;;;;;;;;;;;;;;;;2202594;67;2177;-70
2021/11/21 02:39:35;;;;;;;;;;;;;;;;;;2203112;59;2256;-70
2021/11/21 02:42:09;;;;;;;;;;;;;;;;;;2203638;59;1704;-70
2021/11/21 02:44:42;;;;;;;;;;;;;;;;;;2203081;59;2001;-70
2021/11/21 02:47:15;;;;;;;;;;;;;;;;;;2201996;59;1874;-70
2021/11/21 02:49:50;;;;;;;;;;;;;;;;;;2205118;66;2577;-70
2021/11/21 02:52:26;;;;;;;;;;;;;;;;;;2204579;59;2458;-70
2021/11/21 02:55:00;;;;;;;;;;;;;;;;;;2203107;59;1092;-70
2021/11/21 02:57:34;;;;;;;;;;;;;;;;;;2204260;60;1880;-70
2021/11/21 03:00:08;;;;;;;;;;;;;;;;;;2203772;59;1243;-70
2021/11/21 03:02:41;;;;;;;;;;;;;;;;;;2201279;59;1706;-70
2021/11/21 03:05:15;;;;;;;;;;;;;;;;;;2202263;67;2351;-70
2021/11/21 03:07:51;;;;;;;;;;;;;;;;;;2201204;59;2055;-70
2021/11/21 03:10:24;;;;;;;;;;;;;;;;;;2203916;59;1234;-70
2021/11/21 03:12:58;;;;;;;;;;;;;;;;;;2209089;59;1879;-70
2021/11/21 03:15:32;;;;;;;;;;;;;;;;;;2209523;58;1131;-70
2021/11/21 03:18:06;;;;;;;;;;;;;;;;;;2200198;59;2442;-70
2021/11/21 03:20:39;;;;;;;;;;;;;;;;;;2202789;59;1264;-70
2021/11/21 03:23:15;;;;;;;;;;;;;;;;;;2204872;58;2066;-70
2021/11/21 03:25:48;;;;;;;;;;;;;;;;;;2202131;59;2825;-70
2021/11/21 03:28:21;;;;;;;;;;;;;;;;;;2201161;59;1903;-70
2021/11/21 03:30:55;;;;;;;;;;;;;;;;;;2199987;59;1896;-70
2021/11/21 03:33:28;;;;;;;;;;;;;;;;;;2202115;59;1200;-70
2021/11/21 03:36:01;;;;;;;;;;;;;;;;;;2203966;59;1827;-70
2021/11/21 03:38:37;;;;;;;;;;;;;;;;;;2201823;59;1944;-70
2021/11/21 03:41:10;;;;;;;;;;;;;;;;;;2202201;59;1707;-70
2021/11/21 03:43:43;;;;;;;;;;;;;;;;;;2202492;67;1932;-70
2021/11/21 03:46:17;;;;;;;;;;;;;;;;;;2201471;59;1844;-70
2021/11/21 03:48:50;;;;;;;;;;;;;;;;;;2202443;59;1915;-70
2021/11/21 03:51:23;;;;;;;;;;;;;;;;;;2203019;59;2571;-70
2021/11/21 03:53:59;;;;;;;;;;;;;;;;;;2205021;59;2661;-70
2021/11/21 03:56:32;;;;;;;;;;;;;;;;;;2201511;59;1793;-70
2021/11/21 03:59:05;;;;;;;;;;;;;;;;;;2201208;59;2022;-69
2021/11/21 04:01:38;;;;;;;;;;;;;;;;;;2202443;59;1985;-69
2021/11/21 04:04:12;;;;;;;;;;;;;;;;;;2202033;59;1983;-70
2021/11/21 04:06:45;;;;;;;;;;;;;;;;;;2201647;60;1881;-70
2021/11/21 04:09:22;;;;;;;;;;;;;;;;;;2203641;59;2279;-70
2021/11/21 04:11:55;;;;;;;;;;;;;;;;;;2202339;59;1616;-70
2021/11/21 04:14:28;;;;;;;;;;;;;;;;;;2214372;59;1238;-70
2021/11/21 04:17:01;;;;;;;;;;;;;;;;;;2202500;59;1972;-70
2021/11/21 04:19:34;;;;;;;;;;;;;;;;;;2202344;59;2294;-70
2021/11/21 04:22:08;;;;;;;;;;;;;;;;;;2202651;59;1995;-70
2021/11/21 04:24:43;;;;;;;;;;;;;;;;;;2203019;59;1980;-70
2021/11/21 04:27:17;;;;;;;;;;;;;;;;;;2202303;59;1911;-70
2021/11/21 04:29:50;;;;;;;;;;;;;;;;;;2203261;59;1208;-70
2021/11/21 04:32:23;;;;;;;;;;;;;;;;;;2200879;59;2151;-70
2021/11/21 04:34:56;;;;;;;;;;;;;;;;;;2203058;67;1199;-70
2021/11/21 04:37:29;;;;;;;;;;;;;;;;;;2201797;59;2068;-70
2021/11/21 04:40:05;;;;;;;;;;;;;;;;;;2202729;67;1294;-70
2021/11/21 04:42:38;;;;;;;;;;;;;;;;;;2201886;59;2089;-70
2021/11/21 04:45:12;;;;;;;;;;;;;;;;;;2202475;67;1972;-70
2021/11/21 04:47:45;;;;;;;;;;;;;;;;;;2201749;59;1864;-70
2021/11/21 04:50:18;;;;;;;;;;;;;;;;;;2202081;67;1416;-70
2021/11/21 04:52:52;;;;;;;;;;;;;;;;;;2206246;59;3204;-70
2021/11/21 04:55:27;;;;;;;;;;;;;;;;;;2208456;59;2132;-70
2021/11/21 04:58:01;;;;;;;;;;;;;;;;;;2202753;59;2354;-70
2021/11/21 05:00:34;;;;;;;;;;;;;;;;;;2202909;59;1258;-70
2021/11/21 05:03:07;;;;;;;;;;;;;;;;;;2208722;66;2225;-70
2021/11/21 05:05:40;;;;;;;;;;;;;;;;;;2203724;59;2064;-70
2021/11/21 05:08:13;;;;;;;;;;;;;;;;;;2201914;59;1993;-70
2021/11/21 05:10:49;;;;;;;;;;;;;;;;;;2203195;59;1881;-70
2021/11/21 05:13:22;;;;;;;;;;;;;;;;;;2210039;59;1306;-70
2021/11/21 05:15:55;;;;;;;;;;;;;;;;;;2204146;66;1115;-70
2021/11/21 05:18:28;;;;;;;;;;;;;;;;;;2199639;59;2311;-70
2021/11/21 05:21:02;;;;;;;;;;;;;;;;;;2202107;59;1945;-70
2021/11/21 05:23:35;;;;;;;;;;;;;;;;;;2202807;59;1352;-70
2021/11/21 05:26:11;;;;;;;;;;;;;;;;;;2203012;67;1944;-70
2021/11/21 05:28:44;;;;;;;;;;;;;;;;;;2200015;59;1742;-71
2021/11/21 05:31:17;;;;;;;;;;;;;;;;;;2204515;59;1946;-70
2021/11/21 05:33:51;;;;;;;;;;;;;;;;;;2206878;58;1111;-70
2021/11/21 05:36:24;;;;;;;;;;;;;;;;;;2201466;59;1998;-70
2021/11/21 05:38:57;;;;;;;;;;;;;;;;;;2201623;59;1908;-70
2021/11/21 05:41:33;;;;;;;;;;;;;;;;;;2201348;59;2027;-70
2021/11/21 05:44:07;;;;;;;;;;;;;;;;;;2201539;67;1936;-70
2021/11/21 05:46:41;;;;;;;;;;;;;;;;;;2202981;59;1774;-70
2021/11/21 05:49:15;;;;;;;;;;;;;;;;;;2201194;60;2043;-70
2021/11/21 05:51:48;;;;;;;;;;;;;;;;;;2201503;59;1859;-70
2021/11/21 05:54:21;;;;;;;;;;;;;;;;;;2209338;59;2421;-70
2021/11/21 05:56:57;;;;;;;;;;;;;;;;;;2210184;66;5971;-70
2021/11/21 05:59:30;;;;;;;;;;;;;;;;;;2202589;59;1836;-71
2021/11/21 06:02:03;;;;;;;;;;;;;;;;;;2207423;59;1814;-70
2021/11/21 06:04:36;;;;;;;;;;;;;;;;;;2202083;59;2274;-70
2021/11/21 06:07:10;;;;;;;;;;;;;;;;;;2200068;59;2060;-70
2021/11/21 06:09:43;;;;;;;;;;;;;;;;;;2204041;59;2337;-70
2021/11/21 06:12:19;;;;;;;;;;;;;;;;;;2200681;59;1897;-70
2021/11/21 06:14:52;;;;;;;;;;;;;;;;;;2201639;59;1484;-70
2021/11/21 06:17:27;;;;;;;;;;;;;;;;;;2204567;59;2126;-70
2021/11/21 06:20:00;;;;;;;;;;;;;;;;;;2201770;59;1535;-70
2021/11/21 06:22:33;;;;;;;;;;;;;;;;;;2201731;59;2197;-70
2021/11/21 06:25:07;;;;;;;;;;;;;;;;;;2200655;59;1928;-70
2021/11/21 06:27:43;;;;;;;;;;;;;;;;;;2202209;59;1885;-70
2021/11/21 06:30:16;;;;;;;;;;;;;;;;;;2204567;66;1288;-70
2021/11/21 06:32:49;;;;;;;;;;;;;;;;;;2206133;59;2092;-70
2021/11/21 06:35:23;;;;;;;;;;;;;;;;;;2205185;66;1092;-70
2021/11/21 06:37:56;;;;;;;;;;;;;;;;;;2199848;59;2446;-70
2021/11/21 06:40:29;;;;;;;;;;;;;;;;;;2200981;67;1222;-70
2021/11/21 06:43:05;;;;;;;;;;;;;;;;;;2203426;59;2075;-71
2021/11/21 06:45:38;;;;;;;;;;;;;;;;;;2201219;59;2441;-70
2021/11/21 06:48:14;;;;;;;;;;;;;;;;;;2203215;59;2047;-70
2021/11/21 06:50:51;;;;;;;;;;;;;;;;;;2200877;59;2194;-70
2021/11/21 06:53:24;;;;;;;;;;;;;;;;;;2201614;59;2032;-70
2021/11/21 06:55:58;;;;;;;;;;;;;;;;;;2203262;59;2577;-70
2021/11/21 06:58:33;;;;;;;;;;;;;;;;;;2204902;59;1864;-70
2021/11/21 07:01:07;;;;;;;;;;;;;;;;;;2200055;59;1895;-70
2021/11/21 07:03:40;;;;;;;;;;;;;;;;;;2203412;59;1218;-70
2021/11/21 07:06:28;;;;;;;;;;;;;;;;;;2201096;59;1974;-70
2021/11/21 07:09:01;;;;;;;;;;;;;;;;;;2207890;59;1915;-70
2021/11/21 07:11:34;;;;;;;;;;;;;;;;;;2201415;59;2218;-70
2021/11/21 07:14:12;;;;;;;;;;;;;;;;;;2202945;67;1124;-70
2021/11/21 07:16:48;;;;;;;;;;;;;;;;;;2201950;59;1923;-70
2021/11/21 07:19:21;;;;;;;;;;;;;;;;;;2202281;59;1986;-70
2021/11/21 07:21:55;;;;;;;;;;;;;;;;;;2201202;67;2534;-70
2021/11/21 07:24:28;;;;;;;;;;;;;;;;;;2206468;58;1979;-70
2021/11/21 07:27:01;;;;;;;;;;;;;;;;;;2201973;59;1734;-70
2021/11/21 07:29:37;;;;;;;;;;;;;;;;;;2201101;59;2155;-70
2021/11/21 07:32:11;;;;;;;;;;;;;;;;;;2201245;60;1956;-70
2021/11/21 07:34:44;;;;;;;;;;;;;;;;;;2204293;59;2916;-70
2021/11/21 07:37:17;;;;;;;;;;;;;;;;;;2203543;59;2058;-70
2021/11/21 07:39:50;;;;;;;;;;;;;;;;;;2201646;59;1869;-70
2021/11/21 07:42:23;;;;;;;;;;;;;;;;;;2200610;59;1972;-70
2021/11/21 07:44:59;;;;;;;;;;;;;;;;;;2204897;66;2231;-70
2021/11/21 07:47:32;;;;;;;;;;;;;;;;;;2201379;59;1738;-70
2021/11/21 07:50:06;;;;;;;;;;;;;;;;;;2203333;59;1232;-70
2021/11/21 07:52:39;;;;;;;;;;;;;;;;;;2201453;60;1939;-70
2021/11/21 07:55:13;;;;;;;;;;;;;;;;;;2203258;59;2562;-70
2021/11/21 07:57:46;;;;;;;;;;;;;;;;;;2200681;59;2220;-70
2021/11/21 08:00:22;;;;;;;;;;;;;;;;;;2208097;66;1220;-70
2021/11/21 08:02:57;;;;;;;;;;;;;;;;;;2201504;59;2007;-70
2021/11/21 08:05:30;;;;;;;;;;;;;;;;;;2201133;66;1912;-70
2021/11/21 08:08:03;;;;;;;;;;;;;;;;;;2199418;59;2294;-70
2021/11/21 08:10:37;;;;;;;;;;;;;;;;;;2210696;66;1243;-70
2021/11/21 08:13:11;;;;;;;;;;;;;;;;;;2208436;59;2207;-70
2021/11/21 08:15:48;;;;;;;;;;;;;;;;;;2206213;58;1227;-70
2021/11/21 08:18:21;;;;;;;;;;;;;;;;;;2200806;60;1979;-70
2021/11/21 08:20:55;;;;;;;;;;;;;;;;;;2202821;59;1799;-70
2021/11/21 08:23:28;;;;;;;;;;;;;;;;;;2207067;59;1366;-70
2021/11/21 08:26:01;;;;;;;;;;;;;;;;;;2201547;67;1948;-70
2021/11/21 08:28:38;;;;;;;;;;;;;;;;;;2203172;53;3741;-71
2021/11/21 08:31:14;;;;;;;;;;;;;;;;;;2213322;59;1676;-71
2021/11/21 08:33:47;;;;;;;;;;;;;;;;;;2212772;66;1221;-71
2021/11/21 08:36:21;;;;;;;;;;;;;;;;;;2212778;59;1923;-71
2021/11/21 08:38:54;;;;;;;;;;;;;;;;;;2214668;59;1760;-71
2021/11/21 08:41:28;;;;;;;;;;;;;;;;;;2212795;59;1919;-71
2021/11/21 08:44:01;;;;;;;;;;;;;;;;;;2214934;66;1123;-71
2021/11/21 08:46:38;;;;;;;;;;;;;;;;;;2215972;59;1933;-71
2021/11/21 08:49:11;;;;;;;;;;;;;;;;;;2210865;59;2376;-71
2021/11/21 08:51:45;;;;;;;;;;;;;;;;;;2212892;59;1799;-71
2021/11/21 08:54:19;;;;;;;;;;;;;;;;;;2215439;59;1360;-71
2021/11/21 08:56:53;;;;;;;;;;;;;;;;;;2214147;59;2618;-71
2021/11/21 08:59:26;;;;;;;;;;;;;;;;;;2213779;67;1991;-72
2021/11/21 09:02:02;;;;;;;;;;;;;;;;;;2213439;59;2190;-71
2021/11/21 09:04:36;;;;;;;;;;;;;;;;;;2215296;59;1228;-71
2021/11/21 09:07:09;;;;;;;;;;;;;;;;;;2211626;59;2000;-71
2021/11/21 09:09:42;;;;;;;;;;;;;;;;;;2214263;59;1866;-71
2021/11/21 09:12:16;;;;;;;;;;;;;;;;;;2210195;59;1874;-71
2021/11/21 09:14:52;;;;;;;;;;;;;;;;;;2212801;59;2208;-71
2021/11/21 09:17:28;;;;;;;;;;;;;;;;;;2211218;59;2294;-71
2021/11/21 09:20:01;;;;;;;;;;;;;;;;;;2213888;59;1860;-71
2021/11/21 09:22:35;;;;;;;;;;;;;;;;;;2213806;59;1843;-71
2021/11/21 09:25:09;;;;;;;;;;;;;;;;;;2215195;66;1932;-71
2021/11/21 09:27:43;;;;;;;;;;;;;;;;;;2212453;59;1874;-71
2021/11/21 09:30:16;;;;;;;;;;;;;;;;;;2213967;59;2112;-71
2021/11/21 09:32:52;;;;;;;;;;;;;;;;;;2214666;59;1833;-71
2021/11/21 09:35:26;;;;;;;;;;;;;;;;;;2214283;59;1227;-71
2021/11/21 09:37:59;;;;;;;;;;;;;;;;;;2212901;59;2187;-71
2021/11/21 09:40:33;;;;;;;;;;;;;;;;;;2214660;59;2009;-71
2021/11/21 09:43:06;;;;;;;;;;;;;;;;;;2214377;59;1971;-71
2021/11/21 09:45:39;;;;;;;;;;;;;;;;;;2214559;59;1999;-71
2021/11/21 09:48:16;;;;;;;;;;;;;;;;;;2212309;59;2209;-71
2021/11/21 09:50:49;;;;;;;;;;;;;;;;;;2210995;59;1902;-71
2021/11/21 09:53:24;;;;;;;;;;;;;;;;;;2213445;67;1207;-71
2021/11/21 09:55:58;;;;;;;;;;;;;;;;;;2216561;66;1193;-71
2021/11/21 09:58:32;;;;;;;;;;;;;;;;;;2211662;59;2746;-71
2021/11/21 10:01:05;;;;;;;;;;;;;;;;;;2213410;66;2373;-71
2021/11/21 10:03:49;;;;;;;;;;;;;;;;;;2214214;67;1175;-71
2021/11/21 10:06:31;;;;;;;;;;;;;;;;;;2212238;59;2009;-71
2021/11/21 10:09:05;;;;;;;;;;;;;;;;;;2212068;59;2276;-71
2021/11/21 10:11:53;;;;;;;;;;;;;;;;;;2213513;59;1932;-71
2021/11/21 10:14:26;;;;;;;;;;;;;;;;;;2212327;59;1863;-71
2021/11/21 10:17:00;;;;;;;;;;;;;;;;;;2213405;59;1902;-71
2021/11/21 10:19:36;;;;;;;;;;;;;;;;;;2213070;67;1695;-71
2021/11/21 10:22:09;;;;;;;;;;;;;;;;;;2213362;66;2065;-71
2021/11/21 10:24:44;;;;;;;;;;;;;;;;;;2213120;67;1308;-71
2021/11/21 10:27:19;;;;;;;;;;;;;;;;;;2213084;59;2043;-71
2021/11/21 10:29:54;;;;;;;;;;;;;;;;;;2212740;59;2195;-71
2021/11/21 10:32:30;;;;;;;;;;;;;;;;;;2214009;59;1941;-71
2021/11/21 10:35:07;;;;;;;;;;;;;;;;;;2209276;67;1507;-71
2021/11/21 10:37:43;;;;;;;;;;;;;;;;;;2209013;59;1818;-71
2021/11/21 10:40:18;;;;;;;;;;;;;;;;;;2214026;67;2434;-71
2021/11/21 10:42:52;;;;;;;;;;;;;;;;;;2214166;59;1821;-71
2021/11/21 10:45:27;;;;;;;;;;;;;;;;;;2213863;59;1612;-71
2021/11/21 10:48:01;;;;;;;;;;;;;;;;;;2213548;59;1929;-71
2021/11/21 10:50:38;;;;;;;;;;;;;;;;;;2215581;67;1175;-70
2021/11/21 10:53:12;;;;;;;;;;;;;;;;;;2214228;59;2196;-71
2021/11/21 10:55:46;;;;;;;;;;;;;;;;;;2214988;59;1653;-71
2021/11/21 10:58:20;;;;;;;;;;;;;;;;;;2213090;59;2504;-71
2021/11/21 11:00:58;;;;;;;;;;;;;;;;;;2214030;59;2590;-71
2021/11/21 11:03:31;;;;;;;;;;;;;;;;;;2211583;59;1744;-72
2021/11/21 11:06:27;;;;;;;;;;;;;;;;;;2211963;66;1989;-72
2021/11/21 11:09:15;;;;;;;;;;;;;;;;;;2213766;67;2624;-71
2021/11/21 11:11:49;;;;;;;;;;;;;;;;;;2213782;59;1903;-71
2021/11/21 11:14:23;;;;;;;;;;;;;;;;;;2214053;59;3267;-72
2021/11/21 11:16:57;;;;;;;;;;;;;;;;;;2215578;66;1136;-71
2021/11/21 11:19:31;;;;;;;;;;;;;;;;;;2214674;59;1729;-71
2021/11/21 11:22:08;;;;;;;;;;;;;;;;;;2215963;66;1233;-71
2021/11/21 11:24:43;;;;;;;;;;;;;;;;;;2214996;67;1198;-71
2021/11/21 11:27:25;;;;;;;;;;;;;;;;;;2215137;66;1989;-71
2021/11/21 11:29:58;;;;;;;;;;;;;;;;;;2213850;59;1377;-71
2021/11/21 11:32:36;;;;;;;;;;;;;;;;;;2215330;66;1256;-71
2021/11/21 11:35:29;;;;;;;;;;;;;;;;;;2211673;59;1224;-71
2021/11/21 11:38:13;;;;;;;;;;;;;;;;;;2213205;66;997;-71
2021/11/21 11:40:49;;;;;;;;;;;;;;;;;;2214418;67;1110;-71
2021/11/21 11:43:31;;;;;;;;;;;;;;;;;;2215375;66;1189;-71
2021/11/21 11:46:07;;;;;;;;;;;;;;;;;;2214066;59;1925;-71
2021/11/21 11:48:42;;;;;;;;;;;;;;;;;;2215501;66;1288;-70
2021/11/21 11:51:17;;;;;;;;;;;;;;;;;;2213962;67;1141;-71
2021/11/21 11:53:54;;;;;;;;;;;;;;;;;;2211667;67;1236;-71
2021/11/21 11:56:28;;;;;;;;;;;;;;;;;;2213831;59;1399;-71
2021/11/21 11:59:02;;;;;;;;;;;;;;;;;;2214761;66;1232;-71
2021/11/21 12:01:54;;;;;;;;;;;;;;;;;;2215336;67;1308;-71
2021/11/21 12:04:47;;;;;;;;;;;;;;;;;;2212714;59;1789;-71
2021/11/21 12:07:40;;;;;;;;;;;;;;;;;;2215471;66;1929;-71
2021/11/21 12:10:22;;;;;;;;;;;;;;;;;;2215151;66;1277;-71
2021/11/21 12:13:02;;;;;;;;;;;;;;;;;;2215700;66;1204;-71
2021/11/21 12:15:48;;;;;;;;;;;;;;;;;;2213372;59;2674;-71
2021/11/21 12:18:22;;;;;;;;;;;;;;;;;;2214449;59;1237;-71
2021/11/21 12:20:57;;;;;;;;;;;;;;;;;;2213005;59;1274;-71
2021/11/21 12:23:48;;;;;;;;;;;;;;;;;;2213530;59;1316;-71
2021/11/21 12:26:28;;;;;;;;;;;;;;;;;;2212376;59;1931;-71
2021/11/21 12:29:02;;;;;;;;;;;;;;;;;;2215172;59;1240;-71
2021/11/21 12:31:37;;;;;;;;;;;;;;;;;;2213039;67;1234;-71
2021/11/21 12:34:29;;;;;;;;;;;;;;;;;;2216106;59;1256;-71
2021/11/21 12:37:08;;;;;;;;;;;;;;;;;;2214490;67;1089;-71
2021/11/21 12:39:42;;;;;;;;;;;;;;;;;;2211215;59;1814;-71
2021/11/21 12:42:20;;;;;;;;;;;;;;;;;;2215445;66;1235;-71
2021/11/21 12:45:05;;;;;;;;;;;;;;;;;;2215034;59;1083;-71
2021/11/21 12:47:39;;;;;;;;;;;;;;;;;;2214999;59;1973;-71
2021/11/21 12:50:23;;;;;;;;;;;;;;;;;;2214845;59;1743;-71
2021/11/21 12:52:59;;;;;;;;;;;;;;;;;;2214628;66;1200;-71
2021/11/21 12:55:33;;;;;;;;;;;;;;;;;;2213651;67;1256;-71
2021/11/21 12:58:10;;;;;;;;;;;;;;;;;;2213509;59;1268;-71
2021/11/21 13:00:43;;;;;;;;;;;;;;;;;;2212913;59;1413;-71
2021/11/21 13:03:18;;;;;;;;;;;;;;;;;;2214083;59;1753;-71
2021/11/21 13:05:53;;;;;;;;;;;;;;;;;;2214824;67;1190;-71
2021/11/21 13:08:28;;;;;;;;;;;;;;;;;;2214376;67;1932;-71
2021/11/21 13:11:03;;;;;;;;;;;;;;;;;;2212295;67;1172;-71
2021/11/21 13:13:40;;;;;;;;;;;;;;;;;;2214505;67;1246;-71
2021/11/21 13:16:14;;;;;;;;;;;;;;;;;;2212419;59;2554;-71
2021/11/21 13:18:48;;;;;;;;;;;;;;;;;;2213812;59;1298;-71
2021/11/21 13:21:22;;;;;;;;;;;;;;;;;;2214028;67;1061;-71
2021/11/21 13:23:56;;;;;;;;;;;;;;;;;;2211051;59;1957;-71
2021/11/21 13:26:29;;;;;;;;;;;;;;;;;;2208927;59;2051;-71
2021/11/21 13:29:08;;;;;;;;;;;;;;;;;;2211916;59;1970;-71
2021/11/21 13:31:43;;;;;;;;;;;;;;;;;;2214152;59;1620;-71
2021/11/21 13:34:17;;;;;;;;;;;;;;;;;;2215815;66;1295;-71
2021/11/21 13:37:01;;;;;;;;;;;;;;;;;;2213999;59;1987;-71
2021/11/21 13:39:36;;;;;;;;;;;;;;;;;;2214411;59;1305;-71
2021/11/21 13:42:11;;;;;;;;;;;;;;;;;;2213020;67;1113;-71
2021/11/21 13:44:50;;;;;;;;;;;;;;;;;;2214538;59;1265;-70
2021/11/21 13:47:27;;;;;;;;;;;;;;;;;;2212210;59;1992;-71
2021/11/21 13:50:00;;;;;;;;;;;;;;;;;;2215193;59;1294;-71
2021/11/21 13:52:34;;;;;;;;;;;;;;;;;;2213018;59;1496;-72
2021/11/21 13:55:10;;;;;;;;;;;;;;;;;;2214166;59;1644;-71
2021/11/21 13:57:44;;;;;;;;;;;;;;;;;;2214783;67;1161;-71
2021/11/21 14:00:25;;;;;;;;;;;;;;;;;;2214284;59;1720;-71
2021/11/21 14:02:59;;;;;;;;;;;;;;;;;;2213239;59;1868;-71
2021/11/21 14:05:35;;;;;;;;;;;;;;;;;;2213680;59;1219;-71
2021/11/21 14:08:10;;;;;;;;;;;;;;;;;;2215023;59;1987;-71
2021/11/21 14:10:43;;;;;;;;;;;;;;;;;;2214995;66;1178;-71
2021/11/21 14:13:19;;;;;;;;;;;;;;;;;;2214180;59;1595;-71
2021/11/21 14:16:06;;;;;;;;;;;;;;;;;;2214178;59;2576;-71
2021/11/21 14:18:43;;;;;;;;;;;;;;;;;;2213763;59;2603;-71
2021/11/21 14:21:18;;;;;;;;;;;;;;;;;;2214023;59;1089;-71
2021/11/21 14:23:52;;;;;;;;;;;;;;;;;;2213163;59;1373;-71
2021/11/21 14:26:31;;;;;;;;;;;;;;;;;;2214692;59;1228;-71
2021/11/21 14:29:05;;;;;;;;;;;;;;;;;;2214151;59;1930;-70
2021/11/21 14:31:41;;;;;;;;;;;;;;;;;;2214811;66;1201;-71
2021/11/21 14:34:15;;;;;;;;;;;;;;;;;;2214474;59;1103;-70
2021/11/21 14:36:48;;;;;;;;;;;;;;;;;;2214864;59;1182;-71
2021/11/21 14:39:26;;;;;;;;;;;;;;;;;;2212314;59;1835;-71
2021/11/21 14:42:00;;;;;;;;;;;;;;;;;;2215367;67;1068;-70
2021/11/21 14:44:34;;;;;;;;;;;;;;;;;;2214290;59;1174;-70
2021/11/21 14:47:11;;;;;;;;;;;;;;;;;;2213454;59;1919;-71
2021/11/21 14:49:48;;;;;;;;;;;;;;;;;;2213561;59;1267;-70
2021/11/21 14:52:21;;;;;;;;;;;;;;;;;;2211103;59;1415;-71
2021/11/21 14:54:55;;;;;;;;;;;;;;;;;;2209340;59;1278;-71
2021/11/21 14:57:34;;;;;;;;;;;;;;;;;;2213519;59;1452;-71
2021/11/21 15:00:09;;;;;;;;;;;;;;;;;;2213165;59;1470;-71
2021/11/21 15:02:45;;;;;;;;;;;;;;;;;;2213355;59;1693;-70
2021/11/21 15:05:18;;;;;;;;;;;;;;;;;;2210738;59;1269;-71
2021/11/21 15:07:52;;;;;;;;;;;;;;;;;;2213550;59;1935;-71
2021/11/21 15:10:25;;;;;;;;;;;;;;;;;;2214783;59;1348;-71
2021/11/21 15:12:58;;;;;;;;;;;;;;;;;;2213587;59;1798;-71
2021/11/21 15:15:32;;;;;;;;;;;;;;;;;;2214033;59;1713;-71
2021/11/21 15:18:07;;;;;;;;;;;;;;;;;;2212644;59;2505;-71
2021/11/21 15:20:41;;;;;;;;;;;;;;;;;;2213503;59;2678;-70
2021/11/21 15:23:14;;;;;;;;;;;;;;;;;;2213248;59;1387;-71
2021/11/21 15:25:48;;;;;;;;;;;;;;;;;;2213058;59;1634;-70
2021/11/21 15:28:21;;;;;;;;;;;;;;;;;;2215138;59;1975;-70
2021/11/21 15:30:54;;;;;;;;;;;;;;;;;;2213626;59;1245;-71
2021/11/21 15:33:30;;;;;;;;;;;;;;;;;;2213495;59;1595;-71
2021/11/21 15:36:04;;;;;;;;;;;;;;;;;;2214632;59;1454;-71
2021/11/21 15:38:37;;;;;;;;;;;;;;;;;;2214944;59;1627;-71
2021/11/21 15:41:10;;;;;;;;;;;;;;;;;;2216149;59;1293;-71
2021/11/21 15:43:44;;;;;;;;;;;;;;;;;;2213964;59;1339;-71
2021/11/21 15:46:17;;;;;;;;;;;;;;;;;;2214007;59;1772;-71
2021/11/21 15:48:53;;;;;;;;;;;;;;;;;;2215358;59;1940;-70
2021/11/21 15:51:27;;;;;;;;;;;;;;;;;;2212285;59;1436;-70
2021/11/21 15:54:00;;;;;;;;;;;;;;;;;;2211514;59;1417;-71
2021/11/21 15:56:33;;;;;;;;;;;;;;;;;;2211794;59;1612;-70
2021/11/21 15:59:06;;;;;;;;;;;;;;;;;;2214782;59;1669;-70
2021/11/21 16:01:40;;;;;;;;;;;;;;;;;;2216016;67;1177;-71
2021/11/21 16:04:16;;;;;;;;;;;;;;;;;;2214358;59;1855;-72
2021/11/21 16:06:49;;;;;;;;;;;;;;;;;;2215900;59;1241;-71
2021/11/21 16:09:26;;;;;;;;;;;;;;;;;;2216081;67;1935;-70
2021/11/21 16:12:01;;;;;;;;;;;;;;;;;;2215314;59;1226;-71
2021/11/21 16:14:34;;;;;;;;;;;;;;;;;;2215449;59;1258;-70
2021/11/21 16:17:07;;;;;;;;;;;;;;;;;;2215208;59;1274;-71
2021/11/21 16:19:44;;;;;;;;;;;;;;;;;;2213969;59;2911;-70
2021/11/21 16:22:17;;;;;;;;;;;;;;;;;;2214914;59;1519;-71
2021/11/21 16:24:50;;;;;;;;;;;;;;;;;;2214321;59;1346;-70
2021/11/21 16:27:24;;;;;;;;;;;;;;;;;;2215384;59;1277;-70
2021/11/21 16:29:58;;;;;;;;;;;;;;;;;;2214106;59;1939;-70
2021/11/21 16:32:31;;;;;;;;;;;;;;;;;;2216132;66;1354;-70
2021/11/21 16:35:09;;;;;;;;;;;;;;;;;;2213803;59;1181;-70
2021/11/21 16:37:42;;;;;;;;;;;;;;;;;;2215488;59;1478;-70
2021/11/21 16:40:18;;;;;;;;;;;;;;;;;;2214526;67;1237;-70
2021/11/21 16:42:52;;;;;;;;;;;;;;;;;;2214270;59;1408;-70
2021/11/21 16:45:25;;;;;;;;;;;;;;;;;;2213748;59;1216;-70
2021/11/21 16:47:58;;;;;;;;;;;;;;;;;;2216060;59;1928;-70
2021/11/21 16:50:35;;;;;;;;;;;;;;;;;;2213636;59;1511;-70
2021/11/21 16:53:10;;;;;;;;;;;;;;;;;;2215015;59;1251;-70
2021/11/21 16:55:44;;;;;;;;;;;;;;;;;;2213582;59;1133;-71
2021/11/21 16:58:17;;;;;;;;;;;;;;;;;;2215538;59;1215;-71
2021/11/21 17:00:51;;;;;;;;;;;;;;;;;;2213965;66;1287;-71
2021/11/21 17:03:25;;;;;;;;;;;;;;;;;;2215034;59;1655;-72
2021/11/21 17:06:01;;;;;;;;;;;;;;;;;;2215375;67;1186;-71
2021/11/21 17:08:34;;;;;;;;;;;;;;;;;;2214706;59;1958;-71
2021/11/21 17:11:07;;;;;;;;;;;;;;;;;;2214196;59;1844;-71
2021/11/21 17:13:41;;;;;;;;;;;;;;;;;;2214365;59;1530;-71
2021/11/21 17:16:14;;;;;;;;;;;;;;;;;;2215147;67;1233;-71
2021/11/21 17:18:48;;;;;;;;;;;;;;;;;;2214832;66;2455;-71
2021/11/21 17:21:25;;;;;;;;;;;;;;;;;;2213959;59;2752;-71
2021/11/21 17:23:59;;;;;;;;;;;;;;;;;;2215072;59;1230;-71
2021/11/21 17:26:33;;;;;;;;;;;;;;;;;;2214492;59;1061;-71
2021/11/21 17:29:06;;;;;;;;;;;;;;;;;;2215778;59;1987;-71
2021/11/21 17:31:40;;;;;;;;;;;;;;;;;;2214586;59;1435;-71
2021/11/21 17:34:15;;;;;;;;;;;;;;;;;;2216237;66;1296;-71
2021/11/21 17:36:52;;;;;;;;;;;;;;;;;;2213378;59;1333;-71
2021/11/21 17:39:25;;;;;;;;;;;;;;;;;;2214285;59;1280;-71
2021/11/21 17:41:58;;;;;;;;;;;;;;;;;;2214050;59;1845;-71
2021/11/21 17:44:31;;;;;;;;;;;;;;;;;;2214998;59;1243;-71
2021/11/21 17:47:05;;;;;;;;;;;;;;;;;;2214518;59;1624;-71
2021/11/21 17:49:39;;;;;;;;;;;;;;;;;;2213766;59;1919;-71
2021/11/21 17:52:15;;;;;;;;;;;;;;;;;;2213258;59;1312;-71
2021/11/21 17:54:49;;;;;;;;;;;;;;;;;;2214697;59;1225;-71